CheckWX is a tool to help pilots better visualize weather data.  It is not intended as a substitute for an official pre-flight weather briefing.

10:59:09 UTC

PAVD METAR
Valdez Pioneer Field Airport
Valdez, Alaska, USA
Current

1 hour ago

PAVD 170956Z AUTO VRB03KT 10SM -RA BKN065 OVC085 13/11 A2994 RMK AO2 RAB35 SLP158 P0000 T01280111
Observed
Aug-17 @ 09:56 UTC
Wind
  • Variable at 3 KTS
Visibility
10 SM
Flight Rules
VFR
Conditions
Light Rain
Cloud Levels
  • Broken at 6,500' AGL
  • Overcast at 8,500' AGL
Temperature
13°C / 55°F
Dewpoint
11°C / 52°F
Humidity
88%
Altimeter
29.94" Hg
Pressure
1013.92 hPa
Current Rain
0.01"
Previous

2 hours ago

PAVD 170856Z AUTO 00000KT 10SM BKN070 OVC080 13/09 A2994 RMK AO2 SLP157 T01330094 56022
Observed
Aug-17 @ 08:56 UTC
Visibility
10 SM
Flight Rules
VFR
Cloud Levels
  • Broken at 7,000' AGL
  • Overcast at 8,000' AGL
Temperature
13°C / 55°F
Dewpoint
C / 48°F
Humidity
77%
Altimeter
29.94" Hg
Pressure
1013.92 hPa
Previous

3 hours ago

PAVD 170756Z AUTO 00000KT 10SM SCT065 12/09 A2995 RMK AO2 SLP161 T01220094 401940106
Observed
Aug-17 @ 07:56 UTC
Visibility
10 SM
Flight Rules
VFR
Cloud Levels
  • Scattered at 6,500' AGL
Temperature
12°C / 54°F
Dewpoint
C / 48°F
Humidity
82%
Altimeter
29.95" Hg
Pressure
1014.22 hPa